Weather observations for the past three days for
Oakdale, Allen Parish Airport
Imperial (Metric)
Date Time (cdt) Wind (mph) Vis. (mi.) Weather Sky Cond. Temperature (ºF) Relative Humidity Wind Chill (°F) Heat Index (°F) Pressure Precipitation (in)
Air Dwpt 6 hour altimeter (in) sea level (mb) 1 hr 3 hr 6 hr
Max. Min.
03 01:55 Calm 1.00 Fog/Mist VV007 75.2 71.6 89% 75 29.98 0.0
03 01:35 Calm 7.00 Fair CLR 75.2 73.4 94% 74 29.98 0.0
03 01:15 Calm 10.00 Fair CLR 77 73.4 89% 78 29.98 0.0
03 00:55 Calm 7.00 Fair CLR 75.2 73.4 94% 74 29.99 0.0
03 00:35 Calm 10.00 Fair CLR 77 73.4 89% 78 29.99 0.0
03 00:15 Calm 10.00 Fair CLR 77 73.4 89% 78 29.98 0.0
02 23:55 Calm 10.00 Fair CLR 77 73.4 89% 78 29.98 0.0
02 23:35 Calm 10.00 Fair CLR 77 73.4 89% 78 29.99 0.0
02 23:15 Calm 10.00 Fair CLR 77 73.4 89% 78 29.99 0.0
02 22:55 Calm 10.00 Fair CLR 77 73.4 89% 78 30 0.0
02 22:35 Calm 10.00 Fair CLR 77 73.4 89% 78 30 0.0
02 22:15 Calm 10.00 Fair CLR 77 73.4 89% 78 30 0.0
02 21:55 Calm 10.00 Fair CLR 78.8 75.2 89% 82 30 0.0
02 21:35 Calm 10.00 Fair CLR 78.8 75.2 89% 82 29.99 0.0
02 21:15 Calm 10.00 Fair CLR 78.8 75.2 89% 82 29.98 0.0
02 20:55 Calm 10.00 Fair CLR 78.8 75.2 89% 82 29.97 0.0
02 20:35 Calm 10.00 Fair CLR 80.6 75.2 84% 86 29.97 0.0
02 20:15 Calm 10.00 Fair CLR 78.8 75.2 89% 82 29.97 0.0
02 19:55 Calm 10.00 Fair CLR 80.6 75.2 84% 86 29.97 0.0
02 19:35 Calm 10.00 Fair CLR 80.6 75.2 84% 86 29.96 0.0
02 19:15 Calm 10.00 Fair CLR 82.4 75.2 79% 89 29.97 0.0
02 18:55 Calm 10.00 Fair CLR 84.2 75.2 74% 92 29.97 0.0
02 18:35 Calm 10.00 Fair CLR 84.2 75.2 74% 92 29.97 0.0
02 18:15 Calm 10.00 Fair CLR 84.2 75.2 74% 92 29.97 0.0
02 17:55 Calm 10.00 Fair CLR 86 73.4 66% 93 29.97 0.0
02 17:35 E 3 10.00 Fair CLR 86 73.4 66% 93 29.97 0.0
02 17:15 E 3 10.00 Fair CLR 86 75.2 70% 95 29.97 0.0
02 16:55 E 3 10.00 Fair CLR 84.2 73.4 70% 91 29.97 0.0
02 16:35 E 3 10.00 Fair CLR 84.2 73.4 70% 91 29.99 0.0
02 16:15 E 3 10.00 Fair CLR 84.2 73.4 70% 91 30 0.0
02 15:55 E 5 10.00 Partly Cloudy SCT018 SCT026 SCT050 86 75.2 70% 95 30 0.0
02 15:35 SE 6 10.00 Mostly Cloudy SCT018 SCT026 BKN060 86 75.2 70% 95 30.01 0.0
02 15:15 Calm 10.00 Partly Cloudy SCT060 SCT100 86 73.4 66% 93 30.01 0.0
02 14:55 Calm 10.00 Fair CLR 86 73.4 66% 93 30.01 0.0
02 14:35 Calm 10.00 Partly Cloudy SCT055 SCT100 86 73.4 66% 93 30.01 0.0
02 14:15 SE 3 10.00 Partly Cloudy SCT055 86 73.4 66% 93 30.02 0.0
02 13:55 SW 6 10.00 Fair CLR 87.8 73.4 62% 96 30.01 0.0
02 13:35 S 7 10.00 Fair CLR 87.8 73.4 62% 96 30.01 0.0
02 13:15 S 9 10.00 Fair CLR 87.8 73.4 62% 96 30.01 0.0
02 12:55 SW 10 10.00 Partly Cloudy SCT025 89.6 73.4 59% 98 30.02 0.0
02 12:35 S 5 10.00 Partly Cloudy SCT025 89.6 75.2 63% 100 30.02 0.0
02 12:15 S 7 10.00 Partly Cloudy SCT027 89.6 75.2 63% 100 30.03 0.0
02 11:55 SE 3 10.00 Fair CLR 87.8 77 70% 100 30.04 0.0
02 11:35 Calm 10.00 Fair CLR 87.8 77 70% 100 30.04 0.0
02 11:15 S 5 10.00 Partly Cloudy SCT020 SCT060 SCT070 87.8 77 70% 100 30.04 0.0
02 10:55 S 5 10.00 Mostly Cloudy SCT020 BKN060 BKN070 86 77 75% 97 30.04 0.0
02 10:35 SE 3 10.00 Partly Cloudy SCT016 SCT021 86 77 75% 97 30.04 0.0
02 10:15 SE 5 10.00 Fair CLR 84.2 77 79% 94 30.03 0.0
02 09:55 SE 3 10.00 Fair CLR 84.2 77 79% 94 30.03 0.0
02 09:35 Calm 10.00 Fair CLR 82.4 77 84% 91 30.03 0.0
02 09:15 Calm 10.00 Fair CLR 80.6 77 89% 87 30.03 0.0
02 08:55 Calm 10.00 Fair CLR 80.6 77 89% 87 30.03 0.0
02 08:35 Calm 10.00 Fair CLR 78.8 75.2 89% 82 30.02 0.0
02 08:15 E 3 10.00 Fair CLR 78.8 75.2 89% 82 30.01 0.0
02 07:55 Calm 10.00 Fair CLR 78.8 75.2 89% 82 30.01 0.0 0.01
02 07:35 Calm 10.00 Partly Cloudy SCT031 78.8 75.2 89% 82 30.01 0.0 0.01
02 07:15 Calm 10.00 Mostly Cloudy SCT031 SCT050 BKN060 78.8 75.2 89% 82 29.99 0.0 0.01
02 06:55 SE 3 7.00 Mostly Cloudy SCT024 SCT037 BKN065 78.8 75.2 89% 82 30 0.0
02 06:35 Calm 10.00 Fair CLR 77 75.2 94% 78 30 0.0
02 06:15 E 5 10.00 Partly Cloudy SCT005 77 75.2 94% 78 29.99 0.0
02 05:55 Calm 10.00 Fair CLR 77 75.2 94% 78 29.98 0.0
02 05:35 Calm 10.00 Fair CLR 77 75.2 94% 78 29.98 0.0
02 05:15 SE 3 10.00 Partly Cloudy SCT002 77 75.2 94% 78 29.98 0.0
02 04:55 E 3 10.00 Mostly Cloudy BKN002 77 75.2 94% 78 29.98 0.0
02 04:15 E 3 10.00 Fair CLR 77 75.2 94% 78 29.98 0.0
02 03:55 Calm 10.00 Fair CLR 77 75.2 94% 78 29.98 0.0
02 03:35 Calm 10.00 Fair CLR 77 75.2 94% 78 29.98 0.0
02 03:15 Calm 10.00 Fair CLR 77 75.2 94% 78 29.98 0.0
02 02:55 Calm 10.00 Fair CLR 77 75.2 94% 78 29.98 0.0
02 02:35 Calm 10.00 Fair CLR 77 75.2 94% 78 29.99 0.0
02 02:15 Calm 10.00 Fair CLR 78.8 75.2 89% 82 29.99 0.0
02 01:55 Calm 10.00 Fair CLR 78.8 75.2 89% 82 29.99 0.0
02 01:35 E 3 10.00 Fair CLR 78.8 75.2 89% 82 29.99 0.0
02 01:15 E 3 10.00 Fair CLR 78.8 75.2 89% 82 29.99 0.0
02 00:55 Calm 10.00 Fair CLR 78.8 75.2 89% 82 29.99 0.0
02 00:35 Calm 10.00 Fair CLR 78.8 75.2 89% 82 29.99 0.0
02 00:15 E 3 10.00 Partly Cloudy SCT007 78.8 75.2 89% 82 29.99 0.0
01 23:55 Calm 10.00 Partly Cloudy SCT007 78.8 75.2 89% 82 29.99 0.0
01 23:35 Calm 10.00 Fair CLR 78.8 75.2 89% 82 30 0.0
01 23:15 Calm 10.00 Fair CLR 78.8 75.2 89% 82 30 0.0
01 22:55 Calm 10.00 Partly Cloudy SCT009 78.8 75.2 89% 82 30 0.0
01 22:35 Calm 10.00 Partly Cloudy SCT009 78.8 75.2 89% 82 29.99 0.0
01 22:15 Calm 10.00 Fair CLR 78.8 75.2 89% 82 29.98 0.0
01 21:55 Calm 10.00 Fair CLR 78.8 75.2 89% 82 29.98 0.0
01 21:35 SE 3 10.00 Fair CLR 78.8 75.2 89% 82 29.98 0.0
01 21:15 Calm 10.00 Fair CLR 78.8 75.2 89% 82 29.97 0.0
01 20:55 Calm 10.00 Fair CLR 78.8 75.2 89% 82 29.96 0.0
01 20:35 E 3 10.00 Fair CLR 80.6 75.2 84% 86 29.96 0.0
01 20:15 E 3 10.00 Fair CLR 80.6 75.2 84% 86 29.96 0.0
01 19:55 SE 3 10.00 Fair CLR 80.6 75.2 84% 86 29.96 0.0
01 19:35 SE 5 10.00 Fair CLR 80.6 75.2 84% 86 29.97 0.0
01 19:15 SE 3 10.00 Fair CLR 80.6 75.2 84% 86 29.96 0.0
01 18:55 E 5 10.00 Fair CLR 82.4 75.2 79% 89 29.96 0.0
01 18:35 E 5 10.00 Fair CLR 82.4 75.2 79% 89 29.96 0.0
01 18:15 E 6 10.00 Fair CLR 82.4 75.2 79% 89 29.96 0.0
01 17:55 E 3 10.00 Partly Cloudy SCT013 82.4 75.2 79% 89 29.95 0.0
01 17:35 E 6 10.00 Fair CLR 82.4 75.2 79% 89 29.94 0.0
01 17:15 E 8 10.00 Fair CLR 82.4 75.2 79% 89 29.95 0.0
01 16:55 E 5 10.00 Partly Cloudy SCT010 SCT120 80.6 75.2 84% 86 29.96 0.0
01 16:35 E 6 10.00 Partly Cloudy SCT010 80.6 75.2 84% 86 29.96 0.0
01 16:15 E 5 10.00 Partly Cloudy SCT010 80.6 73.4 79% 85 29.97 0.0
01 15:55 Calm 10.00 Fair CLR 80.6 73.4 79% 85 29.98 0.0
01 15:35 E 6 10.00 Fair CLR 80.6 73.4 79% 85 29.99 0.0
01 15:15 E 6 10.00 Fair CLR 78.8 73.4 84% 82 29.99 0.0
01 14:55 E 6 10.00 Fair CLR 78.8 73.4 84% 82 30 0.0
01 14:35 E 7 10.00 Fair CLR 78.8 73.4 84% 82 30 0.0
01 14:15 NE 6 10.00 Partly Cloudy SCT070 SCT100 77 73.4 89% 78 30 0.0
01 13:55 NE 5 10.00 Partly Cloudy SCT070 SCT100 77 73.4 89% 78 30.01 0.0
01 13:35 Calm 10.00 Partly Cloudy SCT050 SCT075 77 73.4 89% 78 30.01 0.0
01 13:15 E 5 10.00 Mostly Cloudy SCT043 SCT055 BKN080 77 73.4 89% 78 30.02 0.0
01 12:55 E 5 10.00 Partly Cloudy SCT044 77 73.4 89% 78 30.03 0.0
01 12:35 E 8 10.00 Light Rain SCT017 SCT023 SCT034 78.8 75.2 89% 82 30.02 0.0
01 12:15 E 7 10.00 Light Rain BKN016 OVC023 82.4 75.2 79% 89 30.01 0.0
01 11:55 E 8 10.00 Mostly Cloudy BKN014 BKN021 84.2 75.2 74% 92 30.01 0.0
01 11:35 NE 8 10.00 Mostly Cloudy SCT013 SCT080 BKN095 86 75.2 70% 95 30.01 0.0
01 11:15 NE 7 10.00 Overcast SCT015 BKN045 OVC090 84.2 75.2 74% 92 30.03 0.0
01 10:55 NE 7 10.00 Overcast SCT016 BKN023 OVC035 82.4 75.2 79% 89 30.03 0.0
01 10:35 E 6 10.00 Mostly Cloudy SCT014 BKN023 BKN060 82.4 75.2 79% 89 30.02 0.0
01 10:15 NE 6 10.00 Mostly Cloudy SCT008 BKN013 BKN039 84.2 75.2 74% 92 30.02 0.0
01 09:55 NE 8 10.00 Mostly Cloudy BKN008 BKN039 80.6 75.2 84% 86 30.02 0.0
01 09:35 NE 5 10.00 Mostly Cloudy BKN008 BKN036 BKN075 78.8 75.2 89% 82 30.02 0.0
01 09:15 NE 6 10.00 Overcast BKN008 OVC011 78.8 73.4 84% 82 30.01 0.0
01 08:55 NE 6 10.00 Overcast BKN008 OVC013 78.8 73.4 84% 82 30.02 0.0
01 08:35 NE 3 10.00 Overcast BKN008 OVC013 78.8 73.4 84% 82 30.02 0.0
01 08:15 NE 5 10.00 Mostly Cloudy BKN010 BKN015 BKN100 77 73.4 89% 78 30.01 0.0
01 07:55 N 5 10.00 Mostly Cloudy SCT007 BKN014 BKN100 77 73.4 89% 78 30 0.0
01 07:35 N 3 10.00 Partly Cloudy SCT007 SCT017 SCT095 77 73.4 89% 78 30 0.0
01 07:15 Calm 10.00 Fair CLR 77 73.4 89% 78 30 0.0
01 06:55 Calm 10.00 Partly Cloudy SCT014 77 73.4 89% 78 29.99 0.0
01 06:35 Calm 10.00 Partly Cloudy SCT014 SCT021 77 73.4 89% 78 29.98 0.0
01 06:15 N 3 10.00 Mostly Cloudy BKN014 77 73.4 89% 78 29.98 0.0
01 05:55 NE 3 10.00 Partly Cloudy SCT012 75.2 73.4 94% 74 29.99 0.0
01 05:35 Calm 10.00 Fair CLR 75.2 73.4 94% 74 29.99 0.0
01 05:15 Calm 10.00 Fair CLR 75.2 73.4 94% 74 29.99 0.0
01 04:55 N 3 10.00 Fair CLR 75.2 73.4 94% 74 29.98 0.0
01 04:35 Calm 10.00 Partly Cloudy SCT017 75.2 71.6 89% 75 29.99 0.0
01 04:15 Calm 10.00 Fair CLR 75.2 71.6 89% 75 29.98 0.0
01 03:55 Calm 10.00 Fair CLR 75.2 71.6 89% 75 29.98 0.0
01 03:35 Calm 10.00 Fair CLR 75.2 71.6 89% 75 29.98 0.0
01 03:15 Calm 10.00 Fair CLR 75.2 71.6 89% 75 29.98 0.0
01 02:55 Calm 5.00 Fog/Mist CLR 75.2 71.6 89% 75 29.99 0.0
01 02:35 Calm 10.00 Fair CLR 75.2 71.6 89% 75 29.99 0.0
01 02:15 Calm 10.00 Fair CLR 75.2 71.6 89% 75 29.99 0.0
01 01:55 Calm 10.00 Fair CLR 75.2 71.6 89% 75 30 0.0
01 01:35 Calm 10.00 Fair CLR 75.2 71.6 89% 75 30 0.0
01 01:15 Calm 10.00 Fair CLR 75.2 71.6 89% 75 30 0.0
01 00:55 Calm 10.00 Fair CLR 75.2 71.6 89% 75 30 0.0
01 00:35 Calm 10.00 Fair CLR 75.2 71.6 89% 75 30.01 0.0
01 00:15 Calm 10.00 Fair CLR 77 73.4 89% 78 30.01 0.0
31 23:55 Calm 10.00 Fair CLR 77 73.4 89% 78 30 0.0
31 23:35 Calm 10.00 Fair CLR 77 73.4 89% 78 30 0.0
31 23:15 Calm 10.00 Fair CLR 77 73.4 89% 78 30 0.0
31 22:55 Calm 10.00 Fair CLR 77 73.4 89% 78 30 0.0
31 22:35 Calm 10.00 Fair CLR 77 73.4 89% 78 29.99 0.0
31 22:15 Calm 10.00 Fair CLR 77 73.4 89% 78 29.99 0.0
31 21:55 Calm 10.00 Fair CLR 78.8 73.4 84% 82 29.98 0.0
31 21:35 Calm 10.00 Fair CLR 78.8 73.4 84% 82 29.98 0.0
31 21:15 Calm 10.00 Fair CLR 78.8 73.4 84% 82 29.98 0.0
31 20:55 Calm 10.00 Fair CLR 78.8 73.4 84% 82 29.98 0.0
31 20:35 Calm 10.00 Fair CLR 80.6 75.2 84% 86 29.97 0.0
31 20:15 Calm 10.00 Partly Cloudy SCT050 SCT070 80.6 75.2 84% 86 29.97 0.0
31 19:55 Calm 10.00 Partly Cloudy SCT050 82.4 75.2 79% 89 29.98 0.0
31 19:35 Calm 10.00 Partly Cloudy SCT050 SCT100 SCT120 84.2 75.2 74% 92 29.97 0.0
31 19:15 Calm 10.00 Partly Cloudy SCT110 86 75.2 70% 95 29.96 0.0
31 18:55 Calm 10.00 Fair CLR 86 73.4 66% 93 29.97 0.0
31 18:35 Calm 10.00 Partly Cloudy SCT120 86 73.4 66% 93 29.98 0.0
31 18:15 E 5 10.00 Fair CLR 87.8 73.4 62% 96 29.98 0.0
31 17:55 SE 7 10.00 Partly Cloudy SCT055 SCT075 SCT110 87.8 71.6 59% 94 29.98 0.0
31 17:35 SE 7 10.00 Partly Cloudy SCT028 SCT050 SCT070 87.8 75.2 66% 98 29.97 0.0
31 17:15 SE 5 10.00 Partly Cloudy SCT095 95 71.6 47% 103 29.96 0.0
31 16:55 SE 3 10.00 Overcast SCT060 SCT070 OVC095 91.4 69.8 49% 97 29.96 0.0
31 16:35 E 7 10.00 Mostly Cloudy SCT050 SCT065 BKN100 93.2 71.6 50% 101 29.97 0.0
31 16:15 Calm 10.00 Partly Cloudy SCT050 SCT065 SCT110 93.2 69.8 47% 99 29.97 0.0
31 15:55 NE 7 G 18 10.00 Partly Cloudy SCT048 SCT070 SCT085 95 69.8 44% 101 29.98 0.0
31 15:35 E 3 10.00 Mostly Cloudy SCT048 SCT060 BKN110 93.2 71.6 50% 101 29.98 0.0
31 15:15 NE 10 10.00 Partly Cloudy SCT048 SCT070 SCT090 95 71.6 47% 103 29.98 0.0
31 14:55 N 10 10.00 Partly Cloudy SCT043 SCT070 SCT090 95 71.6 47% 103 29.99 0.0
31 14:35 N 7 10.00 Partly Cloudy SCT043 SCT049 SCT065 93.2 71.6 50% 101 30 0.0
31 14:15 NE 7 10.00 Partly Cloudy SCT043 SCT049 SCT065 93.2 71.6 50% 101 30.01 0.0
31 13:55 NE 7 10.00 Partly Cloudy SCT039 SCT047 SCT070 91.4 71.6 52% 99 30.01 0.0
31 13:35 N 9 10.00 Partly Cloudy SCT041 SCT065 91.4 71.6 52% 99 30.02 0.0
31 13:15 NE 5 10.00 Partly Cloudy SCT065 93.2 71.6 50% 101 30.03 0.0
31 12:55 E 6 10.00 Partly Cloudy SCT036 SCT055 91.4 71.6 52% 99 30.03 0.0
31 12:35 NE 6 10.00 Mostly Cloudy SCT034 BKN055 91.4 71.6 52% 99 30.04 0.0
31 12:15 NE 9 10.00 Mostly Cloudy BKN032 BKN045 91.4 71.6 52% 99 30.05 0.0
31 11:55 NE 5 10.00 Mostly Cloudy SCT032 BKN039 BKN046 89.6 73.4 59% 98 30.05 0.0
31 11:35 NE 7 10.00 Mostly Cloudy SCT029 BKN039 BKN047 87.8 71.6 59% 94 30.06 0.0
31 11:15 NE 6 10.00 Partly Cloudy SCT028 89.6 73.4 59% 98 30.06 0.0
31 10:55 N 6 10.00 Partly Cloudy SCT023 SCT031 87.8 73.4 62% 96 30.06 0.0
31 10:35 NE 7 10.00 Mostly Cloudy BKN021 86 73.4 66% 93 30.06 0.0
31 10:15 NE 3 10.00 Partly Cloudy SCT017 86 73.4 66% 93 30.06 0.0
31 09:55 Calm 10.00 Partly Cloudy SCT015 84.2 75.2 74% 92 30.06 0.0
31 09:35 N 3 10.00 Fair CLR 84.2 75.2 74% 92 30.05 0.0
31 09:15 NE 5 10.00 Fair CLR 82.4 73.4 74% 88 30.05 0.0
31 08:55 NE 5 10.00 Fair CLR 80.6 73.4 79% 85 30.05 0.0
31 08:35 Calm 10.00 Fair CLR 78.8 73.4 84% 82 30.04 0.0
31 08:15 Calm 10.00 Fair CLR 77 73.4 89% 78 30.04 0.0
31 07:55 Calm 10.00 Fair CLR 75.2 71.6 89% 75 30.03 0.0
31 07:35 Calm 10.00 Fair CLR 73.4 69.8 89% 30.03 0.0
31 07:15 Calm 10.00 Fair CLR 73.4 69.8 89% 30.02 0.0
31 06:55 Calm 10.00 Fair CLR 73.4 69.8 89% 30.01 0.0
31 06:35 Calm 10.00 Fair CLR 73.4 69.8 89% 30.01 0.0
31 06:15 Calm 10.00 Fair CLR 71.6 69.8 94% 30.01 0.0
31 05:55 Calm 10.00 Fair CLR 73.4 69.8 89% 30.01 0.0
31 05:35 Calm 10.00 Fair CLR 73.4 69.8 89% 30 0.0
31 05:15 Calm 10.00 Fair CLR 73.4 69.8 89% 30 0.0
31 04:55 Calm 10.00 Fair CLR 73.4 69.8 89% 30 0.0
31 04:35 Calm 10.00 Fair CLR 73.4 69.8 89% 30 0.0
31 04:15 Calm 10.00 Fair CLR 73.4 69.8 89% 30 0.0
31 03:55 Calm 10.00 Fair CLR 73.4 69.8 89% 30 0.0
31 03:35 Calm 10.00 Fair CLR 73.4 69.8 89% 30 0.0
31 03:15 Calm 10.00 Fair CLR 73.4 69.8 89% 30.01 0.0
31 02:55 Calm 10.00 Fair CLR 73.4 71.6 94% 30 0.0
31 02:35 Calm 10.00 Fair CLR 75.2 71.6 89% 75 30.01 0.0
31 02:15 Calm 10.00 Fair CLR 75.2 71.6 89% 75 30.01 0.0
Date Time (cdt) Wind (mph) Vis. (mi.) Weather Sky Cond. Air Dwpt Max. Min. Relative Humidity Wind Chill (°F) Heat Index (°F) altimeter (in) sea level (mb) 1 hr 3 hr 6 hr
6 hour
Temperature (ºF) Pressure Precipitation (in)